Zwolle, Louisiana
Current Conditions -  °F | °C
As of 7:38 PM on Friday 24 Oct 2014 (Local Time) from KAQV Reporting Station
Haze Haze  
Wind Chill: 59°   Ceiling: Unl
Heat Index: 59°   Visibility: 2mi
Dew Point: 56°   Wind: 0mph
Humidity: 90%   Direction: NA
Pressure: 30.1"   Gusts: NA
Location:  31.63°N, 93.64°W
Report Text: KAQV 250038Z AUTO 00000KT 2SM BR CLR 15/13 A3010 RMK AO2 T01500133
Loading
Personal Weather Stations






























Interactive Weather Map New forecast layout! Learn more

10-Day Weather Forecast

Advertisements
Track Severe Weather on mobile